sensor_id;sensor_type;location;lat;lon;timestamp;pressure;altitude;pressure_sealevel;temperature;humidity
74181;BME280;62544;50.826;14.354;2022-09-13T00:01:00;98999.47;;;7.69;91.96
74181;BME280;62544;50.826;14.354;2022-09-13T00:05:02;98995.83;;;7.59;92.49
74181;BME280;62544;50.826;14.354;2022-09-13T00:09:04;98992.47;;;7.51;92.37
74181;BME280;62544;50.826;14.354;2022-09-13T00:13:06;98988.81;;;7.42;92.42
74181;BME280;62544;50.826;14.354;2022-09-13T00:17:08;98984.63;;;7.34;92.35
74181;BME280;62544;50.826;14.354;2022-09-13T00:21:11;98980.06;;;7.25;92.40
74181;BME280;62544;50.826;14.354;2022-09-13T00:25:12;98976.62;;;7.16;92.45
74181;BME280;62544;50.826;14.354;2022-09-13T00:29:14;98973.77;;;7.08;92.19
74181;BME280;62544;50.826;14.354;2022-09-13T00:33:16;98970.67;;;7.00;92.44
74181;BME280;62544;50.826;14.354;2022-09-13T00:37:18;98968.61;;;6.93;92.60
74181;BME280;62544;50.826;14.354;2022-09-13T00:41:20;98966.39;;;6.86;92.58
74181;BME280;62544;50.826;14.354;2022-09-13T00:45:22;98963.23;;;6.79;92.77
74181;BME280;62544;50.826;14.354;2022-09-13T00:49:29;98959.86;;;6.73;92.58
74181;BME280;62544;50.826;14.354;2022-09-13T00:53:30;98956.81;;;6.68;92.78
74181;BME280;62544;50.826;14.354;2022-09-13T00:57:28;98953.98;;;6.63;92.85
74181;BME280;62544;50.826;14.354;2022-09-13T01:01:32;98949.65;;;6.59;92.94
74181;BME280;62544;50.826;14.354;2022-09-13T01:05:34;98944.00;;;6.54;92.94
74181;BME280;62544;50.826;14.354;2022-09-13T01:09:34;98939.01;;;6.51;93.04
74181;BME280;62544;50.826;14.354;2022-09-13T01:13:36;98933.17;;;6.49;93.37
74181;BME280;62544;50.826;14.354;2022-09-13T01:17:38;98928.08;;;6.48;93.12
74181;BME280;62544;50.826;14.354;2022-09-13T01:38:07;98903.77;;;6.39;92.98
74181;BME280;62544;50.826;14.354;2022-09-13T01:41:58;98900.18;;;6.36;93.43
74181;BME280;62544;50.826;14.354;2022-09-13T01:45:59;98896.73;;;6.34;93.71
74181;BME280;62544;50.826;14.354;2022-09-13T01:58:06;98888.82;;;6.39;94.95
74181;BME280;62544;50.826;14.354;2022-09-13T02:02:02;98886.10;;;6.45;95.49
74181;BME280;62544;50.826;14.354;2022-09-13T02:06:04;98883.70;;;6.53;95.58
74181;BME280;62544;50.826;14.354;2022-09-13T02:10:14;98880.30;;;6.61;95.58
74181;BME280;62544;50.826;14.354;2022-09-13T02:14:11;98874.67;;;6.67;95.49
74181;BME280;62544;50.826;14.354;2022-09-13T02:18:09;98869.50;;;6.71;95.25
74181;BME280;62544;50.826;14.354;2022-09-13T02:22:10;98864.65;;;6.74;95.19
74181;BME280;62544;50.826;14.354;2022-09-13T02:26:12;98859.92;;;6.76;95.13
74181;BME280;62544;50.826;14.354;2022-09-13T02:30:14;98854.96;;;6.77;94.93
74181;BME280;62544;50.826;14.354;2022-09-13T02:34:20;98850.69;;;6.77;95.14
74181;BME280;62544;50.826;14.354;2022-09-13T02:38:25;98848.52;;;6.77;95.05
74181;BME280;62544;50.826;14.354;2022-09-13T02:42:20;98846.31;;;6.76;95.54
74181;BME280;62544;50.826;14.354;2022-09-13T02:54:30;98843.66;;;6.78;95.15
74181;BME280;62544;50.826;14.354;2022-09-13T02:58:33;98842.83;;;6.77;94.91
74181;BME280;62544;50.826;14.354;2022-09-13T03:02:31;98842.28;;;6.74;94.56
74181;BME280;62544;50.826;14.354;2022-09-13T03:06:32;98841.71;;;6.70;94.33
74181;BME280;62544;50.826;14.354;2022-09-13T03:14:40;98840.65;;;6.58;94.26
74181;BME280;62544;50.826;14.354;2022-09-13T03:22:47;98842.72;;;6.43;93.96
74181;BME280;62544;50.826;14.354;2022-09-13T03:30:47;98844.95;;;6.26;93.77
74181;BME280;62544;50.826;14.354;2022-09-13T03:34:58;98843.14;;;6.18;94.04
74181;BME280;62544;50.826;14.354;2022-09-13T03:39:01;98841.09;;;6.11;93.77
74181;BME280;62544;50.826;14.354;2022-09-13T03:42:54;98840.01;;;6.04;93.68
74181;BME280;62544;50.826;14.354;2022-09-13T03:46:53;98838.69;;;5.97;93.94
74181;BME280;62544;50.826;14.354;2022-09-13T03:50:54;98835.28;;;5.91;93.83
74181;BME280;62544;50.826;14.354;2022-09-13T03:54:56;98832.10;;;5.86;94.01
74181;BME280;62544;50.826;14.354;2022-09-13T03:58:58;98826.87;;;5.82;94.01
74181;BME280;62544;50.826;14.354;2022-09-13T04:03:00;98820.56;;;5.79;94.13
74181;BME280;62544;50.826;14.354;2022-09-13T04:07:02;98814.42;;;5.76;94.23
74181;BME280;62544;50.826;14.354;2022-09-13T04:11:04;98811.47;;;5.73;94.15
74181;BME280;62544;50.826;14.354;2022-09-13T04:15:06;98809.20;;;5.71;94.31
74181;BME280;62544;50.826;14.354;2022-09-13T04:19:08;98807.72;;;5.70;94.23
74181;BME280;62544;50.826;14.354;2022-09-13T04:23:10;98808.46;;;5.71;94.92
74181;BME280;62544;50.826;14.354;2022-09-13T04:27:12;98807.17;;;5.75;95.15
74181;BME280;62544;50.826;14.354;2022-09-13T04:31:14;98807.78;;;5.78;94.96
74181;BME280;62544;50.826;14.354;2022-09-13T04:35:16;98807.65;;;5.84;95.33
74181;BME280;62544;50.826;14.354;2022-09-13T04:39:18;98805.94;;;5.91;95.10
74181;BME280;62544;50.826;14.354;2022-09-13T04:43:20;98806.20;;;5.97;94.99
74181;BME280;62544;50.826;14.354;2022-09-13T04:47:22;98808.03;;;6.02;95.12
74181;BME280;62544;50.826;14.354;2022-09-13T04:51:24;98809.12;;;6.08;95.05
74181;BME280;62544;50.826;14.354;2022-09-13T04:55:26;98810.85;;;6.15;95.64
74181;BME280;62544;50.826;14.354;2022-09-13T04:59:28;98811.01;;;6.22;95.54
74181;BME280;62544;50.826;14.354;2022-09-13T05:03:30;98809.06;;;6.30;95.97
74181;BME280;62544;50.826;14.354;2022-09-13T05:07:32;98808.03;;;6.40;95.86
74181;BME280;62544;50.826;14.354;2022-09-13T05:11:34;98808.00;;;6.49;95.83
74181;BME280;62544;50.826;14.354;2022-09-13T05:15:36;98809.44;;;6.58;95.85
74181;BME280;62544;50.826;14.354;2022-09-13T05:19:38;98809.03;;;6.67;96.06
74181;BME280;62544;50.826;14.354;2022-09-13T05:23:40;98807.83;;;6.78;95.99
74181;BME280;62544;50.826;14.354;2022-09-13T05:27:43;98807.15;;;6.88;95.88
74181;BME280;62544;50.826;14.354;2022-09-13T05:31:44;98806.91;;;6.98;96.05
74181;BME280;62544;50.826;14.354;2022-09-13T05:35:46;98806.58;;;7.10;95.84
74181;BME280;62544;50.826;14.354;2022-09-13T05:39:48;98805.50;;;7.20;95.95
74181;BME280;62544;50.826;14.354;2022-09-13T05:43:50;98803.47;;;7.32;96.06
74181;BME280;62544;50.826;14.354;2022-09-13T05:47:52;98801.22;;;7.51;96.56
74181;BME280;62544;50.826;14.354;2022-09-13T05:51:54;98798.61;;;7.80;97.42
74181;BME280;62544;50.826;14.354;2022-09-13T05:55:56;98796.08;;;8.14;97.13
74181;BME280;62544;50.826;14.354;2022-09-13T05:59:58;98791.30;;;8.52;96.85
74181;BME280;62544;50.826;14.354;2022-09-13T06:04:00;98785.31;;;8.93;96.17
74181;BME280;62544;50.826;14.354;2022-09-13T06:08:02;98780.44;;;9.34;95.60
74181;BME280;62544;50.826;14.354;2022-09-13T06:12:04;98776.03;;;9.78;95.49
74181;BME280;62544;50.826;14.354;2022-09-13T06:16:06;98772.81;;;10.24;94.98
74181;BME280;62544;50.826;14.354;2022-09-13T06:20:08;98770.62;;;10.69;94.21
74181;BME280;62544;50.826;14.354;2022-09-13T06:24:10;98767.56;;;11.09;92.52
74181;BME280;62544;50.826;14.354;2022-09-13T06:28:12;98765.73;;;11.41;92.38
74181;BME280;62544;50.826;14.354;2022-09-13T06:32:14;98761.72;;;11.69;90.77
74181;BME280;62544;50.826;14.354;2022-09-13T06:36:16;98754.39;;;11.96;90.73
74181;BME280;62544;50.826;14.354;2022-09-13T06:40:18;98749.02;;;12.13;90.81
74181;BME280;62544;50.826;14.354;2022-09-13T06:44:20;98743.02;;;12.23;91.11
74181;BME280;62544;50.826;14.354;2022-09-13T06:48:22;98739.83;;;12.40;90.86
74181;BME280;62544;50.826;14.354;2022-09-13T06:52:24;98738.85;;;12.66;89.40
74181;BME280;62544;50.826;14.354;2022-09-13T06:56:26;98738.98;;;13.00;85.38
74181;BME280;62544;50.826;14.354;2022-09-13T07:00:28;98739.29;;;13.33;80.75
74181;BME280;62544;50.826;14.354;2022-09-13T07:04:29;98739.73;;;13.74;77.59
74181;BME280;62544;50.826;14.354;2022-09-13T07:08:31;98738.98;;;14.20;76.20
74181;BME280;62544;50.826;14.354;2022-09-13T07:12:34;98737.42;;;14.71;72.68
74181;BME280;62544;50.826;14.354;2022-09-13T07:16:36;98737.41;;;15.09;72.51
74181;BME280;62544;50.826;14.354;2022-09-13T07:20:37;98735.64;;;15.42;71.42
74181;BME280;62544;50.826;14.354;2022-09-13T07:24:39;98732.95;;;15.80;69.23
74181;BME280;62544;50.826;14.354;2022-09-13T07:28:45;98729.74;;;16.22;69.29
74181;BME280;62544;50.826;14.354;2022-09-13T07:32:43;98727.08;;;16.70;66.76
74181;BME280;62544;50.826;14.354;2022-09-13T07:36:46;98725.44;;;16.93;67.36
74181;BME280;62544;50.826;14.354;2022-09-13T07:40:57;98724.58;;;17.08;68.50
74181;BME280;62544;50.826;14.354;2022-09-13T07:44:50;98723.25;;;17.16;68.91
74181;BME280;62544;50.826;14.354;2022-09-13T07:48:53;98722.75;;;17.25;69.26
74181;BME280;62544;50.826;14.354;2022-09-13T07:52:54;98719.83;;;17.41;67.70
74181;BME280;62544;50.826;14.354;2022-09-13T07:56:56;98716.69;;;17.55;66.23
74181;BME280;62544;50.826;14.354;2022-09-13T08:01:17;98714.11;;;17.73;65.67
74181;BME280;62544;50.826;14.354;2022-09-13T08:05:00;98711.38;;;17.92;64.87
74181;BME280;62544;50.826;14.354;2022-09-13T08:09:02;98710.13;;;18.02;65.09
74181;BME280;62544;50.826;14.354;2022-09-13T08:13:04;98711.13;;;18.03;65.34
74181;BME280;62544;50.826;14.354;2022-09-13T08:17:06;98710.79;;;18.03;65.66
74181;BME280;62544;50.826;14.354;2022-09-13T08:21:08;98710.25;;;18.06;65.27
74181;BME280;62544;50.826;14.354;2022-09-13T08:25:10;98710.69;;;18.07;65.45
74181;BME280;62544;50.826;14.354;2022-09-13T08:29:12;98713.12;;;17.92;67.34
74181;BME280;62544;50.826;14.354;2022-09-13T08:33:14;98715.14;;;17.75;68.27
74181;BME280;62544;50.826;14.354;2022-09-13T08:37:16;98715.61;;;17.64;68.34
74181;BME280;62544;50.826;14.354;2022-09-13T08:41:26;98716.07;;;17.54;69.55
74181;BME280;62544;50.826;14.354;2022-09-13T08:45:20;98713.36;;;17.40;71.22
74181;BME280;62544;50.826;14.354;2022-09-13T08:53:27;98709.38;;;17.11;72.89
74181;BME280;62544;50.826;14.354;2022-09-13T08:57:31;98706.64;;;16.97;73.63
74181;BME280;62544;50.826;14.354;2022-09-13T09:01:31;98706.92;;;16.91;73.34
74181;BME280;62544;50.826;14.354;2022-09-13T09:05:30;98707.40;;;16.88;72.10
74181;BME280;62544;50.826;14.354;2022-09-13T09:09:33;98708.03;;;16.85;74.52
74181;BME280;62544;50.826;14.354;2022-09-13T09:13:47;98707.14;;;16.89;74.79
74181;BME280;62544;50.826;14.354;2022-09-13T09:17:42;98706.26;;;16.95;71.87
74181;BME280;62544;50.826;14.354;2022-09-13T09:21:38;98705.22;;;17.00;72.50
74181;BME280;62544;50.826;14.354;2022-09-13T09:25:40;98704.32;;;17.05;71.09
74181;BME280;62544;50.826;14.354;2022-09-13T09:29:42;98704.11;;;17.10;72.15
74181;BME280;62544;50.826;14.354;2022-09-13T09:37:53;98703.23;;;16.90;73.63
74181;BME280;62544;50.826;14.354;2022-09-13T09:41:48;98704.21;;;16.80;74.21
74181;BME280;62544;50.826;14.354;2022-09-13T09:45:50;98704.14;;;16.73;74.07
74181;BME280;62544;50.826;14.354;2022-09-13T09:50:00;98702.78;;;16.69;73.81
74181;BME280;62544;50.826;14.354;2022-09-13T09:53:56;98700.59;;;16.66;74.40
74181;BME280;62544;50.826;14.354;2022-09-13T09:58:00;98695.25;;;16.72;72.07
74181;BME280;62544;50.826;14.354;2022-09-13T10:01:58;98690.67;;;16.80;71.92
74181;BME280;62544;50.826;14.354;2022-09-13T10:06:10;98685.64;;;16.96;70.09
74181;BME280;62544;50.826;14.354;2022-09-13T10:10:04;98680.83;;;17.12;69.21
74181;BME280;62544;50.826;14.354;2022-09-13T10:14:04;98675.41;;;17.27;69.33
74181;BME280;62544;50.826;14.354;2022-09-13T10:18:16;98669.53;;;17.44;68.62
74181;BME280;62544;50.826;14.354;2022-09-13T10:22:11;98665.58;;;17.56;68.88
74181;BME280;62544;50.826;14.354;2022-09-13T10:26:13;98662.34;;;17.68;68.48
74181;BME280;62544;50.826;14.354;2022-09-13T10:30:31;98660.01;;;17.83;67.47
74181;BME280;62544;50.826;14.354;2022-09-13T10:34:22;98657.00;;;18.00;66.30
74181;BME280;62544;50.826;14.354;2022-09-13T10:38:23;98653.46;;;18.12;67.93
74181;BME280;62544;50.826;14.354;2022-09-13T10:42:19;98650.17;;;18.25;67.33
74181;BME280;62544;50.826;14.354;2022-09-13T10:46:21;98647.63;;;18.37;66.02
74181;BME280;62544;50.826;14.354;2022-09-13T10:50:23;98644.20;;;18.42;66.92
74181;BME280;62544;50.826;14.354;2022-09-13T10:54:25;98642.46;;;18.47;67.54
74181;BME280;62544;50.826;14.354;2022-09-13T10:58:27;98640.25;;;18.54;66.29
74181;BME280;62544;50.826;14.354;2022-09-13T11:14:38;98633.91;;;19.34;62.01
74181;BME280;62544;50.826;14.354;2022-09-13T11:34:49;98614.40;;;20.36;58.44
74181;BME280;62544;50.826;14.354;2022-09-13T11:39:06;98607.59;;;20.59;58.27
74181;BME280;62544;50.826;14.354;2022-09-13T11:42:56;98601.54;;;20.67;59.33
74181;BME280;62544;50.826;14.354;2022-09-13T11:55:13;98583.31;;;21.59;52.73
74181;BME280;62544;50.826;14.354;2022-09-13T11:59:17;98577.48;;;22.00;52.27
74181;BME280;62544;50.826;14.354;2022-09-13T12:03:09;98571.00;;;22.38;51.97
74181;BME280;62544;50.826;14.354;2022-09-13T12:07:02;98562.91;;;22.86;49.39
74181;BME280;62544;50.826;14.354;2022-09-13T12:11:10;98557.08;;;23.46;46.90
74181;BME280;62544;50.826;14.354;2022-09-13T12:15:20;98551.01;;;24.12;45.46
74181;BME280;62544;50.826;14.354;2022-09-13T12:19:11;98544.26;;;24.32;47.84
74181;BME280;62544;50.826;14.354;2022-09-13T12:23:19;98538.42;;;24.33;50.02
74181;BME280;62544;50.826;14.354;2022-09-13T12:31:16;98527.85;;;24.61;46.97
74181;BME280;62544;50.826;14.354;2022-09-13T12:35:23;98524.10;;;24.91;46.88
74181;BME280;62544;50.826;14.354;2022-09-13T12:59:39;98504.14;;;25.65;47.64
74181;BME280;62544;50.826;14.354;2022-09-13T13:03:29;98501.01;;;25.60;48.34
74181;BME280;62544;50.826;14.354;2022-09-13T13:07:31;98496.03;;;25.64;46.94
74181;BME280;62544;50.826;14.354;2022-09-13T13:11:50;98491.25;;;25.60;48.22
74181;BME280;62544;50.826;14.354;2022-09-13T13:19:37;98478.88;;;25.38;48.90
74181;BME280;62544;50.826;14.354;2022-09-13T13:23:39;98472.91;;;25.41;46.67
74181;BME280;62544;50.826;14.354;2022-09-13T13:27:41;98467.63;;;25.87;42.52
74181;BME280;62544;50.826;14.354;2022-09-13T13:35:45;98457.05;;;26.91;41.18
74181;BME280;62544;50.826;14.354;2022-09-13T13:43:49;98450.73;;;26.91;44.08
74181;BME280;62544;50.826;14.354;2022-09-13T14:08:14;98428.86;;;27.96;45.71
74181;BME280;62544;50.826;14.354;2022-09-13T14:12:18;98427.04;;;27.90;40.51
74181;BME280;62544;50.826;14.354;2022-09-13T14:20:08;98422.91;;;29.27;33.32
74181;BME280;62544;50.826;14.354;2022-09-13T14:28:12;98415.11;;;30.62;31.67
74181;BME280;62544;50.826;14.354;2022-09-13T14:32:15;98411.67;;;31.03;31.94
74181;BME280;62544;50.826;14.354;2022-09-13T14:36:16;98410.16;;;31.36;32.39
74181;BME280;62544;50.826;14.354;2022-09-13T14:40:20;98409.40;;;31.53;32.79
74181;BME280;62544;50.826;14.354;2022-09-13T14:44:22;98407.00;;;31.47;34.56
74181;BME280;62544;50.826;14.354;2022-09-13T14:48:22;98404.57;;;31.27;34.67
74181;BME280;62544;50.826;14.354;2022-09-13T14:52:25;98401.20;;;31.16;34.68
74181;BME280;62544;50.826;14.354;2022-09-13T14:56:29;98396.94;;;30.89;36.81
74181;BME280;62544;50.826;14.354;2022-09-13T15:00:27;98395.06;;;30.22;40.93
74181;BME280;62544;50.826;14.354;2022-09-13T15:04:29;98393.63;;;29.48;42.99
74181;BME280;62544;50.826;14.354;2022-09-13T15:12:33;98389.70;;;27.95;48.36
74181;BME280;62544;50.826;14.354;2022-09-13T15:16:45;98388.34;;;27.30;48.98
74181;BME280;62544;50.826;14.354;2022-09-13T15:20:44;98385.79;;;26.70;50.29
74181;BME280;62544;50.826;14.354;2022-09-13T15:24:41;98385.75;;;26.13;51.14
74181;BME280;62544;50.826;14.354;2022-09-13T15:28:47;98385.93;;;25.65;51.99
74181;BME280;62544;50.826;14.354;2022-09-13T15:32:43;98383.73;;;25.27;54.18
74181;BME280;62544;50.826;14.354;2022-09-13T15:36:45;98381.87;;;24.94;54.57
74181;BME280;62544;50.826;14.354;2022-09-13T15:40:56;98380.55;;;24.64;55.42
74181;BME280;62544;50.826;14.354;2022-09-13T15:44:49;98379.82;;;24.41;56.62
74181;BME280;62544;50.826;14.354;2022-09-13T15:48:51;98379.69;;;24.20;57.78
74181;BME280;62544;50.826;14.354;2022-09-13T15:53:04;98380.53;;;23.96;58.70
74181;BME280;62544;50.826;14.354;2022-09-13T15:56:55;98381.83;;;23.74;61.72
74181;BME280;62544;50.826;14.354;2022-09-13T16:00:57;98382.72;;;23.55;61.35
74181;BME280;62544;50.826;14.354;2022-09-13T16:04:59;98383.56;;;23.38;61.50
74181;BME280;62544;50.826;14.354;2022-09-13T16:09:01;98383.53;;;23.22;62.61
74181;BME280;62544;50.826;14.354;2022-09-13T16:13:03;98384.31;;;23.04;64.03
74181;BME280;62544;50.826;14.354;2022-09-13T16:21:07;98386.49;;;22.65;66.37
74181;BME280;62544;50.826;14.354;2022-09-13T16:25:10;98387.05;;;22.51;66.58
74181;BME280;62544;50.826;14.354;2022-09-13T16:29:11;98388.16;;;22.41;66.57
74181;BME280;62544;50.826;14.354;2022-09-13T16:33:13;98388.67;;;22.35;66.15
74181;BME280;62544;50.826;14.354;2022-09-13T16:37:15;98387.73;;;22.28;66.52
74181;BME280;62544;50.826;14.354;2022-09-13T16:41:17;98387.36;;;22.17;67.29
74181;BME280;62544;50.826;14.354;2022-09-13T16:45:19;98388.00;;;22.05;68.32
74181;BME280;62544;50.826;14.354;2022-09-13T16:49:21;98387.95;;;21.93;68.78
74181;BME280;62544;50.826;14.354;2022-09-13T16:53:23;98388.49;;;21.83;69.45
74181;BME280;62544;50.826;14.354;2022-09-13T16:57:25;98387.41;;;21.69;69.28
74181;BME280;62544;50.826;14.354;2022-09-13T17:01:27;98387.02;;;21.53;70.03
74181;BME280;62544;50.826;14.354;2022-09-13T17:05:29;98386.55;;;21.36;71.48
74181;BME280;62544;50.826;14.354;2022-09-13T17:09:31;98385.92;;;21.19;71.70
74181;BME280;62544;50.826;14.354;2022-09-13T17:13:33;98384.86;;;21.01;72.10
74181;BME280;62544;50.826;14.354;2022-09-13T17:17:35;98383.37;;;20.82;72.49
74181;BME280;62544;50.826;14.354;2022-09-13T17:21:36;98382.01;;;20.60;73.75
74181;BME280;62544;50.826;14.354;2022-09-13T17:25:42;98382.53;;;20.36;74.49
74181;BME280;62544;50.826;14.354;2022-09-13T17:29:41;98384.63;;;20.13;74.24
74181;BME280;62544;50.826;14.354;2022-09-13T17:33:43;98385.97;;;19.93;74.58
74181;BME280;62544;50.826;14.354;2022-09-13T17:37:44;98385.94;;;19.76;75.85
74181;BME280;62544;50.826;14.354;2022-09-13T17:41:49;98384.55;;;19.61;76.32
74181;BME280;62544;50.826;14.354;2022-09-13T17:45:49;98381.73;;;19.44;77.28
74181;BME280;62544;50.826;14.354;2022-09-13T17:49:50;98379.90;;;19.28;77.57
74181;BME280;62544;50.826;14.354;2022-09-13T17:53:56;98379.46;;;19.10;77.80
74181;BME280;62544;50.826;14.354;2022-09-13T17:57:54;98380.20;;;18.91;77.43
74181;BME280;62544;50.826;14.354;2022-09-13T18:01:57;98382.39;;;18.72;77.47
74181;BME280;62544;50.826;14.354;2022-09-13T18:05:59;98383.95;;;18.52;78.42
74181;BME280;62544;50.826;14.354;2022-09-13T18:10:00;98385.42;;;18.32;79.66
74181;BME280;62544;50.826;14.354;2022-09-13T18:14:03;98386.58;;;18.12;79.71
74181;BME280;62544;50.826;14.354;2022-09-13T18:18:05;98385.35;;;17.95;79.56
74181;BME280;62544;50.826;14.354;2022-09-13T18:22:07;98382.85;;;17.78;80.32
74181;BME280;62544;50.826;14.354;2022-09-13T18:26:12;98381.23;;;17.59;80.05
74181;BME280;62544;50.826;14.354;2022-09-13T18:30:11;98379.66;;;17.40;80.39
74181;BME280;62544;50.826;14.354;2022-09-13T18:34:13;98379.03;;;17.21;80.82
74181;BME280;62544;50.826;14.354;2022-09-13T18:38:15;98379.24;;;17.03;81.95
74181;BME280;62544;50.826;14.354;2022-09-13T18:42:17;98379.19;;;16.84;83.84
74181;BME280;62544;50.826;14.354;2022-09-13T18:46:19;98379.26;;;16.65;84.21
74181;BME280;62544;50.826;14.354;2022-09-13T18:50:20;98379.53;;;16.47;84.46
74181;BME280;62544;50.826;14.354;2022-09-13T18:54:22;98380.94;;;16.29;84.19
74181;BME280;62544;50.826;14.354;2022-09-13T18:58:25;98380.66;;;16.12;84.31
74181;BME280;62544;50.826;14.354;2022-09-13T19:02:26;98379.89;;;15.94;84.29
74181;BME280;62544;50.826;14.354;2022-09-13T19:06:36;98378.81;;;15.76;85.61
74181;BME280;62544;50.826;14.354;2022-09-13T19:10:30;98378.56;;;15.57;85.71
74181;BME280;62544;50.826;14.354;2022-09-13T19:14:33;98380.10;;;15.40;85.06
74181;BME280;62544;50.826;14.354;2022-09-13T19:18:35;98380.98;;;15.21;84.89
74181;BME280;62544;50.826;14.354;2022-09-13T19:22:36;98382.23;;;15.03;86.33
74181;BME280;62544;50.826;14.354;2022-09-13T19:26:39;98385.30;;;14.87;86.54
74181;BME280;62544;50.826;14.354;2022-09-13T19:30:42;98387.55;;;14.70;85.91
74181;BME280;62544;50.826;14.354;2022-09-13T19:34:43;98389.36;;;14.54;86.40
74181;BME280;62544;50.826;14.354;2022-09-13T19:38:45;98390.01;;;14.39;87.06
74181;BME280;62544;50.826;14.354;2022-09-13T19:42:46;98391.43;;;14.25;87.76
74181;BME280;62544;50.826;14.354;2022-09-13T19:46:48;98391.16;;;14.13;87.78
74181;BME280;62544;50.826;14.354;2022-09-13T19:50:51;98391.36;;;14.01;88.01
74181;BME280;62544;50.826;14.354;2022-09-13T19:54:54;98390.35;;;13.89;88.22
74181;BME280;62544;50.826;14.354;2022-09-13T19:58:55;98389.97;;;13.77;89.95
74181;BME280;62544;50.826;14.354;2022-09-13T20:02:56;98389.48;;;13.66;90.19
74181;BME280;62544;50.826;14.354;2022-09-13T20:06:59;98390.93;;;13.56;89.37
74181;BME280;62544;50.826;14.354;2022-09-13T20:11:04;98391.85;;;13.46;89.71
74181;BME280;62544;50.826;14.354;2022-09-13T20:15:03;98392.11;;;13.37;90.08
74181;BME280;62544;50.826;14.354;2022-09-13T20:19:05;98391.82;;;13.27;90.18
74181;BME280;62544;50.826;14.354;2022-09-13T20:23:07;98390.52;;;13.18;90.08
74181;BME280;62544;50.826;14.354;2022-09-13T20:27:09;98390.82;;;13.09;91.22
74181;BME280;62544;50.826;14.354;2022-09-13T20:31:10;98389.78;;;13.01;91.52
74181;BME280;62544;50.826;14.354;2022-09-13T20:35:12;98387.98;;;12.95;91.43
74181;BME280;62544;50.826;14.354;2022-09-13T20:39:15;98385.72;;;12.88;91.04
74181;BME280;62544;50.826;14.354;2022-09-13T20:43:16;98383.62;;;12.82;91.76
74181;BME280;62544;50.826;14.354;2022-09-13T20:47:18;98381.78;;;12.75;91.51
74181;BME280;62544;50.826;14.354;2022-09-13T20:51:21;98379.28;;;12.67;91.52
74181;BME280;62544;50.826;14.354;2022-09-13T20:55:23;98376.74;;;12.61;91.59
74181;BME280;62544;50.826;14.354;2022-09-13T20:59:24;98375.00;;;12.55;91.59
74181;BME280;62544;50.826;14.354;2022-09-13T21:03:26;98374.73;;;12.49;91.29
74181;BME280;62544;50.826;14.354;2022-09-13T21:07:28;98375.31;;;12.41;90.77
74181;BME280;62544;50.826;14.354;2022-09-13T21:11:31;98375.23;;;12.34;91.59
74181;BME280;62544;50.826;14.354;2022-09-13T21:15:32;98376.70;;;12.29;92.12
74181;BME280;62544;50.826;14.354;2022-09-13T21:19:34;98378.02;;;12.23;92.00
74181;BME280;62544;50.826;14.354;2022-09-13T21:23:36;98380.29;;;12.19;92.24
74181;BME280;62544;50.826;14.354;2022-09-13T21:27:38;98383.82;;;12.15;92.46
74181;BME280;62544;50.826;14.354;2022-09-13T21:31:40;98386.39;;;12.11;92.78
74181;BME280;62544;50.826;14.354;2022-09-13T21:35:42;98388.29;;;12.08;92.65
74181;BME280;62544;50.826;14.354;2022-09-13T21:39:44;98389.40;;;12.05;92.65
74181;BME280;62544;50.826;14.354;2022-09-13T21:43:46;98390.41;;;12.03;92.70
74181;BME280;62544;50.826;14.354;2022-09-13T21:47:48;98392.40;;;12.01;92.89
74181;BME280;62544;50.826;14.354;2022-09-13T21:51:51;98394.30;;;11.98;93.46
74181;BME280;62544;50.826;14.354;2022-09-13T21:55:52;98395.70;;;11.94;93.37
74181;BME280;62544;50.826;14.354;2022-09-13T21:59:54;98396.22;;;11.92;93.36
74181;BME280;62544;50.826;14.354;2022-09-13T22:03:56;98396.22;;;11.91;93.27
74181;BME280;62544;50.826;14.354;2022-09-13T22:07:58;98396.98;;;11.91;93.17
74181;BME280;62544;50.826;14.354;2022-09-13T22:12:00;98397.88;;;11.91;93.08
74181;BME280;62544;50.826;14.354;2022-09-13T22:16:03;98397.71;;;11.91;92.86
74181;BME280;62544;50.826;14.354;2022-09-13T22:20:04;98397.77;;;11.90;92.41
74181;BME280;62544;50.826;14.354;2022-09-13T22:24:07;98397.02;;;11.88;92.56
74181;BME280;62544;50.826;14.354;2022-09-13T22:28:08;98397.33;;;11.87;92.49
74181;BME280;62544;50.826;14.354;2022-09-13T22:32:10;98397.81;;;11.85;92.41
74181;BME280;62544;50.826;14.354;2022-09-13T22:36:13;98398.94;;;11.83;92.54
74181;BME280;62544;50.826;14.354;2022-09-13T22:40:14;98400.35;;;11.82;92.52
74181;BME280;62544;50.826;14.354;2022-09-13T22:44:16;98402.18;;;11.81;93.13
74181;BME280;62544;50.826;14.354;2022-09-13T22:48:19;98404.58;;;11.82;93.11
74181;BME280;62544;50.826;14.354;2022-09-13T22:52:20;98407.58;;;11.82;93.45
74181;BME280;62544;50.826;14.354;2022-09-13T22:56:24;98411.72;;;11.83;93.23
74181;BME280;62544;50.826;14.354;2022-09-13T23:00:24;98414.39;;;11.84;93.02
74181;BME280;62544;50.826;14.354;2022-09-13T23:04:26;98416.46;;;11.88;93.13
74181;BME280;62544;50.826;14.354;2022-09-13T23:08:28;98417.92;;;11.92;93.02
74181;BME280;62544;50.826;14.354;2022-09-13T23:12:30;98420.64;;;11.98;93.46
74181;BME280;62544;50.826;14.354;2022-09-13T23:16:36;98423.32;;;12.06;93.32
74181;BME280;62544;50.826;14.354;2022-09-13T23:20:34;98424.66;;;12.12;93.35
74181;BME280;62544;50.826;14.354;2022-09-13T23:24:36;98425.10;;;12.17;93.19
74181;BME280;62544;50.826;14.354;2022-09-13T23:28:38;98424.20;;;12.20;93.04
74181;BME280;62544;50.826;14.354;2022-09-13T23:32:40;98423.52;;;12.23;93.15
74181;BME280;62544;50.826;14.354;2022-09-13T23:36:43;98422.56;;;12.24;93.06
74181;BME280;62544;50.826;14.354;2022-09-13T23:40:44;98420.65;;;12.23;93.19
74181;BME280;62544;50.826;14.354;2022-09-13T23:44:46;98419.22;;;12.22;93.19
74181;BME280;62544;50.826;14.354;2022-09-13T23:48:48;98417.04;;;12.20;92.96